createdAt,value
2023-08-28T00:01:04.893Z,12.25
2023-08-28T00:03:31.511Z,12.27
2023-08-28T00:05:58.071Z,12.26
2023-08-28T00:08:24.485Z,12.23
2023-08-28T00:10:54.256Z,12.18
2023-08-28T00:13:20.706Z,12.17
2023-08-28T00:15:47.243Z,12.19
2023-08-28T00:18:13.691Z,12.15
2023-08-28T00:20:41.145Z,12.10
2023-08-28T00:23:07.604Z,12.08
2023-08-28T00:25:34.020Z,12.11
2023-08-28T00:28:00.482Z,12.11
2023-08-28T00:30:27.544Z,12.10
2023-08-28T00:32:53.998Z,12.11
2023-08-28T00:35:20.459Z,12.09
2023-08-28T00:37:46.984Z,12.09
2023-08-28T00:40:15.048Z,12.07
2023-08-28T00:42:41.617Z,12.07
2023-08-28T00:45:08.565Z,12.06
2023-08-28T00:47:36.288Z,12.05
2023-08-28T00:50:05.090Z,12.04
2023-08-28T00:52:31.899Z,12.03
2023-08-28T00:54:58.328Z,12.03
2023-08-28T00:57:24.938Z,12.02
2023-08-28T00:59:51.985Z,12.00
2023-08-28T01:02:18.428Z,12.01
2023-08-28T01:04:44.970Z,12.01
2023-08-28T01:07:22.737Z,12.00
2023-08-28T01:10:12.576Z,12.01
2023-08-28T01:12:50.331Z,12.04
2023-08-28T01:15:19.447Z,12.09
2023-08-28T01:17:48.384Z,12.08
2023-08-28T01:20:16.633Z,12.04
2023-08-28T01:23:19.724Z,12.06
2023-08-28T01:25:47.601Z,12.06
2023-08-28T01:28:14.161Z,12.08
2023-08-28T01:30:40.831Z,12.09
2023-08-28T01:33:07.281Z,12.10
2023-08-28T01:35:34.177Z,12.14
2023-08-28T01:38:27.837Z,12.16
2023-08-28T01:41:00.586Z,12.15
2023-08-28T01:43:33.612Z,12.15
2023-08-28T01:46:01.618Z,12.15
2023-08-28T01:48:29.539Z,12.14
2023-08-28T01:50:56.508Z,12.16
2023-08-28T01:53:23.443Z,12.12
2023-08-28T01:56:08.060Z,12.13
2023-08-28T01:58:43.988Z,12.12
2023-08-28T02:01:10.940Z,12.12
2023-08-28T02:03:40.823Z,12.11
2023-08-28T02:06:07.971Z,12.09
2023-08-28T02:08:34.912Z,12.07
2023-08-28T02:11:01.465Z,12.01
2023-08-28T02:13:28.164Z,11.94
2023-08-28T02:15:54.711Z,11.90
2023-08-28T02:18:23.184Z,11.85
2023-08-28T02:20:52.527Z,11.76
2023-08-28T02:23:19.033Z,11.73
2023-08-28T02:25:48.090Z,11.75
2023-08-28T02:28:14.866Z,11.75
2023-08-28T02:30:41.314Z,11.75
2023-08-28T02:33:07.823Z,11.75
2023-08-28T02:35:35.329Z,11.74
2023-08-28T02:38:01.827Z,11.69
2023-08-28T02:40:28.279Z,11.64
2023-08-28T02:42:55.483Z,11.67
2023-08-28T02:45:22.153Z,11.68
2023-08-28T02:47:48.559Z,11.62
2023-08-28T02:50:15.095Z,11.59
2023-08-28T02:52:41.925Z,11.58
2023-08-28T02:55:08.808Z,11.60
2023-08-28T02:57:35.157Z,11.53
2023-08-28T03:00:01.578Z,11.49
2023-08-28T03:02:28.000Z,11.45
2023-08-28T03:04:54.525Z,11.41
2023-08-28T03:07:21.110Z,11.35
2023-08-28T03:09:48.339Z,11.32
2023-08-28T03:12:14.723Z,11.30
2023-08-28T03:14:41.155Z,11.29
2023-08-28T03:17:09.063Z,11.29
2023-08-28T03:19:35.466Z,11.30
2023-08-28T03:22:02.032Z,11.29
2023-08-28T03:24:28.435Z,11.23
2023-08-28T03:26:54.803Z,11.18
2023-08-28T03:29:21.233Z,11.14
2023-08-28T03:31:47.647Z,11.12
2023-08-28T03:34:14.042Z,11.07
2023-08-28T03:36:40.420Z,11.07
2023-08-28T03:39:06.788Z,11.04
2023-08-28T03:41:33.196Z,11.02
2023-08-28T03:43:59.765Z,11.01
2023-08-28T03:46:26.290Z,11.02
2023-08-28T03:48:52.775Z,11.01
2023-08-28T03:51:19.188Z,11.00
2023-08-28T03:53:45.570Z,10.99
2023-08-28T03:56:11.996Z,10.96
2023-08-28T03:58:38.600Z,10.97
2023-08-28T04:01:05.048Z,11.01
2023-08-28T04:03:31.946Z,11.05
2023-08-28T04:06:01.472Z,11.09
2023-08-28T04:08:27.857Z,11.12
2023-08-28T04:10:54.431Z,11.16
2023-08-28T04:13:20.875Z,11.19
2023-08-28T04:15:50.395Z,11.21
2023-08-28T04:18:17.372Z,11.24
2023-08-28T04:20:43.751Z,11.24
2023-08-28T04:23:10.105Z,11.26
2023-08-28T04:25:36.520Z,11.25
2023-08-28T04:28:02.923Z,11.29
2023-08-28T04:30:29.352Z,11.36
2023-08-28T04:32:55.855Z,11.43
2023-08-28T04:35:22.531Z,11.49
2023-08-28T04:37:50.838Z,11.55
2023-08-28T04:40:17.272Z,11.57
2023-08-28T04:42:43.720Z,11.62
2023-08-28T04:45:10.309Z,11.69
2023-08-28T04:47:36.753Z,11.74
2023-08-28T04:50:03.236Z,11.79
2023-08-28T04:52:29.653Z,11.82
2023-08-28T04:54:56.027Z,11.85
2023-08-28T04:57:22.726Z,11.86
2023-08-28T04:59:49.179Z,11.88
2023-08-28T05:02:16.710Z,11.91
2023-08-28T05:04:43.142Z,11.96
2023-08-28T05:07:09.638Z,12.01
2023-08-28T05:09:36.006Z,12.06
2023-08-28T05:12:02.442Z,12.11
2023-08-28T05:14:28.800Z,12.14
2023-08-28T05:16:55.195Z,12.21
2023-08-28T05:19:21.657Z,12.27
2023-08-28T05:21:48.018Z,12.32
2023-08-28T05:24:14.425Z,12.37
2023-08-28T05:26:40.802Z,12.41
2023-08-28T05:29:07.199Z,12.45
2023-08-28T05:31:33.620Z,12.48
2023-08-28T05:34:00.031Z,12.51
2023-08-28T05:36:26.388Z,12.55
2023-08-28T05:38:53.016Z,12.58
2023-08-28T05:41:19.409Z,12.63
2023-08-28T05:43:45.765Z,12.68
2023-08-28T05:46:12.167Z,12.73
2023-08-28T05:48:38.733Z,12.77
2023-08-28T05:51:05.217Z,12.81
2023-08-28T05:53:32.260Z,12.86
2023-08-28T05:55:59.052Z,12.87
2023-08-28T05:58:25.922Z,12.88
2023-08-28T06:00:52.658Z,12.89
2023-08-28T06:03:19.954Z,12.92
2023-08-28T06:05:46.875Z,12.95
2023-08-28T06:08:13.832Z,13.02
2023-08-28T06:10:41.730Z,13.11
2023-08-28T06:13:08.612Z,13.25
2023-08-28T06:15:35.723Z,13.38
2023-08-28T06:18:02.181Z,13.50
2023-08-28T06:20:28.712Z,13.60
2023-08-28T06:22:55.092Z,13.70
2023-08-28T06:25:21.752Z,13.79
2023-08-28T06:27:48.192Z,13.85
2023-08-28T06:30:14.802Z,13.93
2023-08-28T06:32:41.283Z,13.99
2023-08-28T06:35:08.359Z,14.08
2023-08-28T06:37:34.777Z,14.15
2023-08-28T06:40:02.249Z,14.21
2023-08-28T06:42:28.685Z,14.27
2023-08-28T06:44:56.129Z,14.33
2023-08-28T06:47:24.449Z,14.38
2023-08-28T06:49:51.090Z,14.42
2023-08-28T06:52:17.456Z,14.43
2023-08-28T06:57:13.160Z,14.57
2023-08-28T06:59:39.662Z,14.61
2023-08-28T07:02:06.286Z,14.68
2023-08-28T07:04:32.692Z,14.81
2023-08-28T07:06:59.125Z,15.72
2023-08-28T07:09:25.655Z,17.83
2023-08-28T07:11:52.140Z,21.15
2023-08-28T07:14:18.842Z,22.58
2023-08-28T07:16:45.354Z,24.15
2023-08-28T07:19:11.878Z,23.95
2023-08-28T07:21:38.310Z,24.43
2023-08-28T07:24:04.956Z,23.38
2023-08-28T07:26:32.072Z,23.96
2023-08-28T07:28:58.598Z,24.90
2023-08-28T07:31:25.316Z,25.92
2023-08-28T07:33:51.839Z,24.83
2023-08-28T07:36:23.363Z,25.74
2023-08-28T07:38:49.983Z,26.38
2023-08-28T07:41:18.048Z,25.17
2023-08-28T07:43:45.538Z,23.86
2023-08-28T07:46:12.012Z,23.20
2023-08-28T07:48:38.503Z,22.43
2023-08-28T07:51:05.238Z,22.21
2023-08-28T07:53:31.629Z,22.62
2023-08-28T07:55:58.050Z,22.49
2023-08-28T07:58:24.574Z,22.10
2023-08-28T08:00:52.876Z,21.98
2023-08-28T08:03:19.819Z,22.27
2023-08-28T08:05:46.249Z,21.86
2023-08-28T08:08:13.096Z,21.54
2023-08-28T08:10:39.502Z,21.54
2023-08-28T08:13:06.109Z,21.30
2023-08-28T08:18:13.578Z,21.09
2023-08-28T08:20:39.995Z,21.56
2023-08-28T08:23:07.001Z,21.78
2023-08-28T08:25:34.497Z,21.60
2023-08-28T08:28:01.150Z,21.40
2023-08-28T08:30:27.620Z,21.26
2023-08-28T08:32:54.130Z,21.27
2023-08-28T08:35:21.736Z,21.47
2023-08-28T08:37:53.427Z,21.13
2023-08-28T08:40:25.666Z,20.85
2023-08-28T08:42:53.464Z,20.76
2023-08-28T08:45:22.318Z,20.78
2023-08-28T08:47:54.200Z,20.77
2023-08-28T08:50:23.750Z,20.59
2023-08-28T08:52:50.409Z,20.47
2023-08-28T08:55:26.240Z,20.24
2023-08-28T08:57:56.364Z,20.09
2023-08-28T09:00:23.883Z,20.12
2023-08-28T09:02:53.048Z,20.20
2023-08-28T09:05:20.601Z,20.17
2023-08-28T09:07:48.250Z,20.21
2023-08-28T09:10:16.037Z,20.25
2023-08-28T09:12:43.419Z,20.27
2023-08-28T09:15:12.123Z,20.16
2023-08-28T09:17:42.521Z,20.17
2023-08-28T09:20:17.641Z,20.25
2023-08-28T09:22:55.226Z,20.38
2023-08-28T09:25:23.505Z,20.43
2023-08-28T09:27:53.254Z,20.48
2023-08-28T09:30:31.196Z,20.58
2023-08-28T09:32:59.499Z,20.55
2023-08-28T09:35:28.141Z,20.68
2023-08-28T09:40:41.339Z,20.76
2023-08-28T09:43:15.526Z,20.84
2023-08-28T09:45:48.604Z,20.96
2023-08-28T09:48:18.459Z,20.96
2023-08-28T09:50:45.309Z,20.93
2023-08-28T09:53:16.417Z,20.97
2023-08-28T09:55:49.835Z,20.93
2023-08-28T09:58:16.717Z,20.95
2023-08-28T10:00:43.975Z,20.97
2023-08-28T10:03:12.972Z,21.14
2023-08-28T10:05:41.583Z,21.22
2023-08-28T10:08:10.129Z,21.21
2023-08-28T10:10:38.637Z,21.28
2023-08-28T10:13:06.797Z,21.10
2023-08-28T10:15:35.237Z,20.76
2023-08-28T10:18:08.834Z,20.45
2023-08-28T10:20:35.667Z,20.31
2023-08-28T10:23:04.280Z,20.34
2023-08-28T10:25:31.484Z,20.54
2023-08-28T10:27:59.331Z,20.69
2023-08-28T10:30:28.899Z,20.96
2023-08-28T10:32:56.756Z,21.26
2023-08-28T10:35:23.809Z,21.36
2023-08-28T10:37:51.752Z,21.27
2023-08-28T10:40:20.101Z,21.12
2023-08-28T10:42:47.953Z,20.98
2023-08-28T10:45:14.574Z,20.91
2023-08-28T10:47:48.426Z,20.75
2023-08-28T10:50:14.923Z,20.57
2023-08-28T10:52:41.334Z,20.49
2023-08-28T10:55:11.755Z,20.50
2023-08-28T10:57:41.280Z,20.42
2023-08-28T11:00:21.908Z,20.39
2023-08-28T11:03:11.734Z,20.80
2023-08-28T11:05:40.253Z,21.02
2023-08-28T11:08:08.502Z,21.20
2023-08-28T11:10:36.945Z,21.33
2023-08-28T11:13:06.658Z,21.47
2023-08-28T11:15:40.756Z,21.47
2023-08-28T11:18:30.081Z,21.22
2023-08-28T11:21:08.091Z,20.95
2023-08-28T11:23:43.538Z,21.12
2023-08-28T11:26:19.118Z,21.39
2023-08-28T11:28:47.498Z,21.64
2023-08-28T11:31:14.826Z,21.78
2023-08-28T11:33:43.694Z,22.09
2023-08-28T11:36:12.313Z,22.36
2023-08-28T11:38:42.993Z,22.41
2023-08-28T11:41:11.608Z,22.30
2023-08-28T11:43:39.440Z,22.42
2023-08-28T11:46:05.980Z,22.07
2023-08-28T11:48:34.194Z,21.89
2023-08-28T11:51:02.465Z,21.62
2023-08-28T11:53:34.105Z,21.33
2023-08-28T11:56:02.205Z,21.28
2023-08-28T11:58:28.823Z,21.74
2023-08-28T12:00:55.275Z,22.11
2023-08-28T12:03:21.860Z,22.15
2023-08-28T12:05:48.402Z,22.31
2023-08-28T12:08:14.944Z,22.58
2023-08-28T12:10:41.583Z,22.88
2023-08-28T12:13:08.011Z,23.15
2023-08-28T12:15:35.557Z,23.38
2023-08-28T12:18:04.722Z,23.48
2023-08-28T12:20:33.020Z,23.61
2023-08-28T12:23:03.818Z,23.72
2023-08-28T12:25:37.538Z,23.65
2023-08-28T12:28:09.071Z,23.67
2023-08-28T12:30:40.707Z,23.31
2023-08-28T12:33:08.395Z,22.81
2023-08-28T12:35:43.036Z,22.23
2023-08-28T12:38:09.991Z,22.12
2023-08-28T12:40:37.639Z,22.08
2023-08-28T12:43:14.448Z,21.82
2023-08-28T12:45:41.157Z,21.82
2023-08-28T12:48:08.782Z,21.70
2023-08-28T12:50:36.681Z,21.62
2023-08-28T12:53:05.878Z,21.80
2023-08-28T12:55:34.899Z,21.88
2023-08-28T12:58:01.372Z,22.19
2023-08-28T13:00:28.456Z,22.32
2023-08-28T13:02:55.011Z,22.57
2023-08-28T13:05:21.779Z,22.79
2023-08-28T13:07:48.721Z,22.88
2023-08-28T13:10:15.215Z,23.15
2023-08-28T13:12:41.648Z,23.21
2023-08-28T13:15:08.575Z,23.11
2023-08-28T13:17:35.060Z,22.88
2023-08-28T13:20:01.584Z,22.62
2023-08-28T13:22:29.035Z,22.29
2023-08-28T13:24:56.511Z,22.05
2023-08-28T13:27:22.897Z,21.76
2023-08-28T13:29:49.307Z,21.58
2023-08-28T13:32:15.832Z,21.44
2023-08-28T13:34:42.311Z,21.36
2023-08-28T13:37:08.729Z,21.34
2023-08-28T13:39:35.226Z,21.35
2023-08-28T13:42:01.685Z,21.25
2023-08-28T13:44:31.097Z,21.18
2023-08-28T13:47:00.315Z,21.15
2023-08-28T13:49:27.780Z,21.11
2023-08-28T13:51:54.192Z,21.09
2023-08-28T13:54:20.576Z,21.06
2023-08-28T13:56:47.039Z,21.01
2023-08-28T13:59:13.520Z,21.01
2023-08-28T14:01:41.906Z,20.97
2023-08-28T14:04:08.405Z,20.91
2023-08-28T14:06:34.806Z,20.92
2023-08-28T14:09:01.391Z,20.85
2023-08-28T14:11:27.881Z,20.77
2023-08-28T14:13:54.228Z,20.70
2023-08-28T14:16:23.812Z,20.63
2023-08-28T14:18:54.058Z,20.57
2023-08-28T14:21:20.796Z,20.48
2023-08-28T14:23:47.176Z,20.42
2023-08-28T14:26:14.290Z,20.35
2023-08-28T14:28:40.764Z,20.39
2023-08-28T14:31:10.730Z,20.36
2023-08-28T14:33:40.053Z,20.34
2023-08-28T14:36:06.682Z,20.40
2023-08-28T14:38:33.256Z,20.39
2023-08-28T14:40:59.894Z,20.43
2023-08-28T14:43:26.668Z,20.47
2023-08-28T14:45:53.526Z,20.59
2023-08-28T14:48:20.428Z,20.60
2023-08-28T14:50:51.240Z,20.56
2023-08-28T14:53:22.160Z,20.50
2023-08-28T14:55:53.099Z,20.45
2023-08-28T14:58:19.604Z,20.34
2023-08-28T15:00:50.555Z,20.35
2023-08-28T15:03:19.284Z,20.53
2023-08-28T15:05:49.253Z,20.72
2023-08-28T15:08:17.881Z,20.93
2023-08-28T15:10:45.414Z,21.00
2023-08-28T15:13:12.096Z,21.22
2023-08-28T15:15:56.638Z,21.29
2023-08-28T15:18:23.295Z,21.49
2023-08-28T15:20:49.821Z,21.49
2023-08-28T15:23:16.527Z,21.55
2023-08-28T15:25:42.943Z,21.25
2023-08-28T15:28:09.663Z,21.12
2023-08-28T15:30:36.135Z,21.23
2023-08-28T15:33:02.811Z,21.33
2023-08-28T15:35:31.092Z,21.49
2023-08-28T15:38:00.663Z,21.52
2023-08-28T15:40:28.090Z,21.38
2023-08-28T15:42:56.075Z,21.13
2023-08-28T15:45:22.562Z,20.94
2023-08-28T15:47:50.230Z,20.93
2023-08-28T15:50:16.825Z,20.79
2023-08-28T15:52:43.355Z,20.68
2023-08-28T15:55:10.114Z,20.55
2023-08-28T15:57:36.571Z,20.38
2023-08-28T16:00:03.128Z,20.26
2023-08-28T16:02:29.794Z,20.21
2023-08-28T16:04:56.182Z,20.11
2023-08-28T16:07:23.113Z,20.21
2023-08-28T16:09:49.578Z,20.42
2023-08-28T16:12:16.020Z,20.57
2023-08-28T16:14:42.474Z,20.58
2023-08-28T16:17:09.555Z,20.59
2023-08-28T16:19:36.312Z,20.55
2023-08-28T16:22:06.025Z,20.55
2023-08-28T16:24:32.800Z,20.47
2023-08-28T16:26:59.162Z,20.48
2023-08-28T16:29:28.220Z,20.49
2023-08-28T16:31:54.636Z,20.42
2023-08-28T16:34:20.992Z,20.35
2023-08-28T16:36:48.246Z,20.24
2023-08-28T16:39:14.761Z,20.15
2023-08-28T16:41:41.150Z,20.06
2023-08-28T16:44:08.393Z,20.03
2023-08-28T16:46:34.973Z,20.01
2023-08-28T16:49:01.468Z,20.10
2023-08-28T16:51:27.931Z,20.06
2023-08-28T16:53:54.587Z,20.05
2023-08-28T16:56:21.201Z,20.06
2023-08-28T16:58:47.858Z,20.07
2023-08-28T17:01:15.118Z,20.01
2023-08-28T17:03:41.758Z,19.97
2023-08-28T17:06:08.338Z,19.87
2023-08-28T17:08:34.715Z,19.78
2023-08-28T17:11:02.033Z,19.69
2023-08-28T17:13:28.424Z,19.61
2023-08-28T17:15:56.314Z,19.57
2023-08-28T17:18:23.252Z,19.57
2023-08-28T17:20:49.675Z,19.56
2023-08-28T17:23:17.712Z,19.51
2023-08-28T17:25:44.233Z,19.49
2023-08-28T17:28:11.947Z,19.47
2023-08-28T17:30:38.406Z,19.42
2023-08-28T17:33:05.128Z,19.41
2023-08-28T17:35:31.759Z,19.37
2023-08-28T17:37:59.134Z,19.32
2023-08-28T17:40:25.627Z,19.26
2023-08-28T17:42:52.019Z,19.21
2023-08-28T17:45:18.611Z,19.18
2023-08-28T17:47:45.097Z,19.12
2023-08-28T17:50:11.889Z,19.08
2023-08-28T17:52:38.451Z,19.06
2023-08-28T17:55:05.446Z,19.02
2023-08-28T17:57:31.840Z,18.98
2023-08-28T17:59:58.233Z,18.95
2023-08-28T18:02:24.669Z,18.93
2023-08-28T18:04:55.768Z,18.92
2023-08-28T18:07:24.649Z,18.86
2023-08-28T18:09:51.846Z,18.82
2023-08-28T18:12:18.295Z,18.79
2023-08-28T18:14:44.648Z,18.73
2023-08-28T18:17:13.336Z,18.66
2023-08-28T18:19:39.823Z,18.61
2023-08-28T18:22:06.219Z,18.53
2023-08-28T18:24:33.169Z,18.48
2023-08-28T18:27:02.737Z,18.41
2023-08-28T18:29:32.043Z,18.34
2023-08-28T18:31:58.477Z,18.30
2023-08-28T18:34:27.281Z,18.23
2023-08-28T18:36:53.681Z,18.19
2023-08-28T18:39:21.509Z,18.12
2023-08-28T18:41:56.263Z,18.05
2023-08-28T18:44:33.788Z,18.00
2023-08-28T18:47:00.304Z,17.95
2023-08-28T18:49:26.754Z,17.87
2023-08-28T18:51:56.472Z,17.80
2023-08-28T18:54:24.647Z,17.75
2023-08-28T18:56:51.086Z,17.67
2023-08-28T18:59:17.479Z,17.60
2023-08-28T19:01:43.913Z,17.53
2023-08-28T19:04:10.439Z,17.40
2023-08-28T19:06:36.818Z,17.30
2023-08-28T19:09:03.760Z,17.22
2023-08-28T19:11:30.156Z,17.15
2023-08-28T19:13:56.515Z,17.11
2023-08-28T19:16:22.929Z,17.05
2023-08-28T19:18:49.453Z,16.99
2023-08-28T19:21:16.114Z,16.93
2023-08-28T19:23:43.034Z,16.89
2023-08-28T19:26:10.159Z,16.84
2023-08-28T19:28:37.094Z,16.80
2023-08-28T19:31:06.589Z,16.77
2023-08-28T19:33:33.018Z,16.70
2023-08-28T19:35:59.424Z,16.64
2023-08-28T19:38:29.840Z,16.60
2023-08-28T19:40:56.333Z,16.52
2023-08-28T19:43:26.096Z,16.46
2023-08-28T19:45:52.758Z,16.39
2023-08-28T19:48:19.202Z,16.36
2023-08-28T19:50:45.557Z,16.32
2023-08-28T19:53:14.895Z,16.24
2023-08-28T19:55:42.051Z,16.19
2023-08-28T19:58:08.895Z,16.13
2023-08-28T20:00:35.461Z,16.07
2023-08-28T20:03:02.065Z,15.99
2023-08-28T20:05:30.790Z,15.89
2023-08-28T20:07:57.236Z,15.84
2023-08-28T20:10:23.723Z,15.80
2023-08-28T20:12:50.151Z,15.72
2023-08-28T20:15:17.120Z,15.65
2023-08-28T20:17:44.184Z,15.57
2023-08-28T20:20:12.718Z,15.55
2023-08-28T20:22:42.291Z,15.49
2023-08-28T20:25:09.293Z,15.41
2023-08-28T20:27:35.906Z,15.36
2023-08-28T20:30:02.352Z,15.32
2023-08-28T20:32:28.755Z,15.29
2023-08-28T20:34:55.108Z,15.24
2023-08-28T20:37:21.554Z,15.17
2023-08-28T20:39:48.591Z,15.08
2023-08-28T20:42:15.014Z,15.02
2023-08-28T20:44:43.323Z,14.98
2023-08-28T20:47:09.870Z,14.95
2023-08-28T20:49:37.123Z,14.92
2023-08-28T20:52:04.385Z,14.83
2023-08-28T20:54:30.995Z,14.78
2023-08-28T20:56:57.449Z,14.76
2023-08-28T20:59:23.983Z,14.73
2023-08-28T21:01:50.401Z,14.69
2023-08-28T21:04:16.863Z,14.66
2023-08-28T21:06:43.570Z,14.58
2023-08-28T21:11:54.388Z,14.43
2023-08-28T21:14:23.169Z,14.38
2023-08-28T21:16:49.804Z,14.35
2023-08-28T21:19:26.816Z,14.34
2023-08-28T21:21:53.171Z,14.30
2023-08-28T21:24:19.521Z,14.29
2023-08-28T21:26:45.989Z,14.25
2023-08-28T21:29:12.372Z,14.20
2023-08-28T21:31:38.879Z,14.15
2023-08-28T21:34:05.361Z,14.12
2023-08-28T21:36:32.454Z,14.11
2023-08-28T21:38:58.973Z,14.08
2023-08-28T21:41:25.429Z,14.05
2023-08-28T21:43:51.792Z,14.03
2023-08-28T21:46:18.217Z,14.02
2023-08-28T21:48:44.700Z,14.00
2023-08-28T21:51:11.973Z,14.00
2023-08-28T21:53:38.408Z,13.95
2023-08-28T21:56:04.931Z,13.93
2023-08-28T21:58:31.306Z,13.91
2023-08-28T22:00:57.842Z,13.88
2023-08-28T22:03:24.405Z,13.89
2023-08-28T22:05:51.951Z,13.86
2023-08-28T22:08:18.355Z,13.83
2023-08-28T22:10:44.917Z,13.78
2023-08-28T22:13:11.695Z,13.76
2023-08-28T22:15:42.108Z,13.75
2023-08-28T22:18:10.914Z,13.73
2023-08-28T22:20:42.664Z,13.72
2023-08-28T22:23:10.268Z,13.70
2023-08-28T22:25:37.073Z,13.68
2023-08-28T22:28:04.003Z,13.61
2023-08-28T22:30:32.594Z,13.46
2023-08-28T22:32:59.124Z,13.35
2023-08-28T22:35:25.549Z,13.27
2023-08-28T22:37:52.006Z,13.25
2023-08-28T22:40:19.524Z,13.26
2023-08-28T22:42:46.595Z,13.25
2023-08-28T22:45:13.054Z,13.19
2023-08-28T22:47:39.513Z,13.12
2023-08-28T22:50:06.280Z,13.12
2023-08-28T22:52:32.651Z,13.12
2023-08-28T22:54:59.015Z,13.12
2023-08-28T22:57:25.451Z,13.08
2023-08-28T22:59:52.337Z,13.05
2023-08-28T23:02:18.699Z,13.04
2023-08-28T23:04:45.195Z,12.99
2023-08-28T23:07:11.602Z,12.91
2023-08-28T23:09:38.073Z,12.89
2023-08-28T23:12:08.090Z,12.88
2023-08-28T23:14:34.796Z,12.84
2023-08-28T23:17:01.384Z,12.75
2023-08-28T23:19:27.801Z,12.70
2023-08-28T23:21:54.210Z,12.66
2023-08-28T23:24:20.564Z,12.68
2023-08-28T23:26:46.928Z,12.68
2023-08-28T23:29:15.221Z,12.68
2023-08-28T23:31:41.649Z,12.64
2023-08-28T23:34:08.055Z,12.59
2023-08-28T23:36:34.446Z,12.56
2023-08-28T23:39:07.940Z,12.56
2023-08-28T23:41:35.531Z,12.51
2023-08-28T23:44:02.281Z,12.48
2023-08-28T23:46:28.785Z,12.49
2023-08-28T23:48:55.297Z,12.49
2023-08-28T23:51:21.645Z,12.45
2023-08-28T23:53:48.027Z,12.40
2023-08-28T23:56:14.407Z,12.32
2023-08-28T23:58:40.831Z,12.28
